Time;durP1;ratioP1;P1;durP2;ratioP2;P2;SDS_P1;SDS_P2;PMS_P1;PMS_P2;Temp;Humidity;BMP_temperature;BMP_pressure;BME280_temperature;BME280_humidity;BME280_pressure;Samples;Min_cycle;Max_cycle;Signal;HPM_P1;HPM_P2
2023/11/06 00:01:01;;;;;;;8.65;5.47;;;;;;;10.96;100.00;98240.16;5010629;28;20034;-68
2023/11/06 00:03:26;;;;;;;8.30;5.35;;;;;;;10.96;100.00;98247.41;5010228;28;20060;-69
2023/11/06 00:05:52;;;;;;;5.85;4.90;;;;;;;10.92;100.00;98247.13;5009224;28;20081;-69
2023/11/06 00:08:17;;;;;;;6.55;5.38;;;;;;;10.96;100.00;98244.69;5010492;28;20600;-69
2023/11/06 00:10:42;;;;;;;7.88;5.50;;;;;;;10.72;100.00;98241.66;5010418;28;20052;-68
2023/11/06 00:13:08;;;;;;;7.55;5.40;;;;;;;10.87;100.00;98249.81;5009316;28;20030;-69
2023/11/06 00:15:33;;;;;;;8.00;5.32;;;;;;;10.82;100.00;98245.19;5010607;28;20026;-69
2023/11/06 00:17:59;;;;;;;7.78;5.50;;;;;;;10.89;100.00;98250.31;5010846;28;20120;-69
2023/11/06 00:20:25;;;;;;;6.78;5.43;;;;;;;10.86;100.00;98250.88;5009395;28;20034;-69
2023/11/06 00:22:50;;;;;;;6.88;5.03;;;;;;;10.88;100.00;98247.91;5008097;28;20034;-69
2023/11/06 00:25:16;;;;;;;8.65;5.63;;;;;;;10.90;100.00;98254.66;5009833;28;20080;-69
2023/11/06 00:27:42;;;;;;;6.32;5.50;;;;;;;10.87;100.00;98249.81;5009252;28;20385;-69
2023/11/06 00:30:07;;;;;;;7.82;5.22;;;;;;;10.72;100.00;98239.78;5010985;28;20038;-69
2023/11/06 00:32:33;;;;;;;9.38;5.70;;;;;;;10.76;100.00;98248.97;5011430;28;20112;-68
2023/11/06 00:34:59;;;;;;;7.53;5.47;;;;;;;10.58;100.00;98236.75;5011483;28;20406;-69
2023/11/06 00:37:24;;;;;;;6.32;4.97;;;;;;;10.65;100.00;98265.31;5010586;28;20061;-69
2023/11/06 00:39:50;;;;;;;7.03;5.32;;;;;;;10.67;100.00;98263.97;5010208;28;20029;-69
2023/11/06 00:42:15;;;;;;;8.10;5.63;;;;;;;10.65;100.00;98268.00;5011235;28;20034;-69
2023/11/06 00:44:41;;;;;;;7.65;5.72;;;;;;;10.58;100.00;98265.53;5011180;28;20141;-69
2023/11/06 00:47:06;;;;;;;8.27;5.68;;;;;;;10.62;100.00;98263.94;4976268;28;20030;-69
2023/11/06 00:49:32;;;;;;;7.45;5.60;;;;;;;10.64;100.00;98267.19;4963690;28;1314279;-69
2023/11/06 00:51:57;;;;;;;8.00;6.00;;;;;;;10.63;100.00;98267.44;5011160;28;20149;-69
2023/11/06 00:54:23;;;;;;;10.07;6.13;;;;;;;10.44;100.00;98272.47;5011646;28;20036;-69
2023/11/06 00:56:49;;;;;;;10.07;6.35;;;;;;;10.31;100.00;98271.03;5011777;28;20050;-69
2023/11/06 00:59:16;;;;;;;9.52;5.90;;;;;;;10.01;100.00;98275.09;5010924;28;20411;-69
2023/11/06 01:01:43;;;;;;;7.28;5.72;;;;;;;10.03;100.00;98272.97;5011911;28;20038;-69
2023/11/06 01:04:09;;;;;;;6.72;5.97;;;;;;;10.07;100.00;98275.97;5012168;28;20500;-69
2023/11/06 01:06:35;;;;;;;7.70;6.00;;;;;;;10.00;100.00;98283.41;5011050;28;20056;-69
2023/11/06 01:09:01;;;;;;;11.45;5.90;;;;;;;10.14;100.00;98268.47;5012251;28;20037;-69
2023/11/06 01:11:26;;;;;;;7.22;5.57;;;;;;;10.21;100.00;98279.81;5010216;28;20033;-69
2023/11/06 01:13:51;;;;;;;6.93;5.70;;;;;;;10.43;100.00;98281.56;5011757;28;20084;-69
2023/11/06 01:16:20;;;;;;;8.35;6.03;;;;;;;10.30;100.00;98280.19;5011924;28;20520;-69
2023/11/06 01:18:45;;;;;;;8.05;6.07;;;;;;;10.29;100.00;98276.66;5011602;28;20092;-69
2023/11/06 01:21:11;;;;;;;9.00;5.97;;;;;;;10.31;100.00;98279.09;5011771;28;20473;-69
2023/11/06 01:23:38;;;;;;;6.65;5.82;;;;;;;10.16;100.00;98263.63;5010653;28;20481;-70
2023/11/06 01:26:03;;;;;;;7.22;5.93;;;;;;;10.34;100.00;98297.41;5010577;28;20053;-70
2023/11/06 01:28:29;;;;;;;9.15;6.32;;;;;;;10.40;100.00;98298.22;5010832;28;20142;-69
2023/11/06 01:30:55;;;;;;;8.25;5.75;;;;;;;10.45;100.00;98295.56;5009830;28;20507;-69
2023/11/06 01:33:20;;;;;;;8.52;5.70;;;;;;;10.67;100.00;98304.31;5009530;28;20041;-69
2023/11/06 01:35:45;;;;;;;7.45;6.30;;;;;;;10.58;100.00;98292.44;5011562;28;20496;-69
2023/11/06 01:38:11;;;;;;;7.28;5.65;;;;;;;10.49;100.00;98286.72;5025659;28;20472;-69
2023/11/06 01:40:36;;;;;;;7.88;6.38;;;;;;;10.61;100.00;98312.63;5010450;28;20034;-69
2023/11/06 01:43:06;;;;;;;13.45;6.38;;;;;;;10.73;100.00;98316.72;5010132;28;20055;-69
2023/11/06 01:45:32;;;;;;;12.55;6.07;;;;;;;10.52;100.00;98301.53;5011412;28;20026;-69
2023/11/06 01:48:00;;;;;;;8.35;6.28;;;;;;;10.50;100.00;98299.13;5012351;28;20064;-69
2023/11/06 01:50:31;;;;;;;9.07;6.15;;;;;;;10.66;100.00;98329.59;5019876;28;20049;-70
2023/11/06 01:52:58;;;;;;;10.45;7.25;;;;;;;10.51;100.00;98322.25;5028352;28;20072;-69
2023/11/06 01:55:26;;;;;;;6.90;5.90;;;;;;;10.51;100.00;98329.50;5016188;28;20034;-70
2023/11/06 01:57:55;;;;;;;7.70;6.13;;;;;;;10.52;100.00;98329.22;5012847;28;20517;-69
2023/11/06 02:00:21;;;;;;;6.70;5.65;;;;;;;10.45;100.00;98330.53;5014134;28;20053;-69
2023/11/06 02:02:48;;;;;;;9.48;6.32;;;;;;;10.46;100.00;98335.66;5012765;28;20041;-70
2023/11/06 02:05:13;;;;;;;9.25;6.15;;;;;;;10.64;100.00;98337.09;5014546;28;20030;-69
2023/11/06 02:07:39;;;;;;;10.00;6.90;;;;;;;10.63;100.00;98338.19;5029966;28;20059;-70
2023/11/06 02:10:05;;;;;;;11.93;6.40;;;;;;;10.69;100.00;98339.81;5013244;28;20022;-70
2023/11/06 02:12:32;;;;;;;8.48;6.55;;;;;;;10.67;100.00;98339.28;5014992;28;20140;-69
2023/11/06 02:14:58;;;;;;;8.27;6.10;;;;;;;10.68;100.00;98345.47;5014629;28;20042;-70
2023/11/06 02:17:25;;;;;;;8.55;6.30;;;;;;;10.57;100.00;98352.66;5012976;28;20053;-70
2023/11/06 02:19:51;;;;;;;8.75;6.15;;;;;;;10.78;100.00;98361.66;5013776;28;20381;-69
2023/11/06 02:22:21;;;;;;;7.13;6.05;;;;;;;10.69;100.00;98353.25;5014333;28;20037;-70
2023/11/06 02:24:50;;;;;;;8.55;6.40;;;;;;;10.75;100.00;98354.91;5013044;28;20037;-70
2023/11/06 02:27:18;;;;;;;7.40;6.25;;;;;;;10.84;100.00;98359.81;5013839;28;20136;-70
2023/11/06 02:29:44;;;;;;;6.95;6.07;;;;;;;10.87;100.00;98360.09;5012356;28;20098;-70
2023/11/06 02:32:09;;;;;;;8.57;6.05;;;;;;;10.75;100.00;98344.16;5012726;28;20133;-70
2023/11/06 02:34:37;;;;;;;9.50;6.30;;;;;;;10.88;100.00;98366.28;5012512;28;20108;-70
2023/11/06 02:37:03;;;;;;;7.30;6.13;;;;;;;10.88;100.00;98368.97;5029038;28;20113;-70
2023/11/06 02:39:29;;;;;;;8.48;6.43;;;;;;;10.71;100.00;98369.16;5013684;28;20065;-70
2023/11/06 02:41:54;;;;;;;7.15;6.18;;;;;;;10.85;100.00;98372.19;5012203;28;20072;-70
2023/11/06 02:44:19;;;;;;;6.93;6.20;;;;;;;10.78;100.00;98370.53;5012695;28;20041;-70
2023/11/06 02:46:46;;;;;;;8.57;6.32;;;;;;;10.80;100.00;98381.06;4996128;28;20485;-69
2023/11/06 02:49:11;;;;;;;7.78;6.32;;;;;;;10.80;100.00;98381.84;5011824;28;20070;-69
2023/11/06 02:51:38;;;;;;;10.38;6.50;;;;;;;10.85;100.00;98380.25;5013382;28;20026;-70
2023/11/06 02:54:05;;;;;;;10.73;6.25;;;;;;;10.81;100.00;98383.47;5013927;28;20036;-70
2023/11/06 02:56:34;;;;;;;9.23;6.63;;;;;;;10.71;100.00;98388.78;5013723;28;20042;-70
2023/11/06 02:59:04;;;;;;;10.98;6.30;;;;;;;10.76;100.00;98383.44;5021230;28;20045;-70
2023/11/06 03:01:30;;;;;;;9.63;6.13;;;;;;;10.76;100.00;98402.28;5024955;28;20034;-69
2023/11/06 03:03:57;;;;;;;7.80;5.53;;;;;;;10.94;100.00;98406.41;5013420;28;20049;-70
2023/11/06 03:06:26;;;;;;;7.90;6.10;;;;;;;11.03;100.00;98404.06;5013419;28;20025;-70
2023/11/06 03:08:52;;;;;;;7.57;5.80;;;;;;;11.04;100.00;98411.06;5011267;28;20026;-70
2023/11/06 03:11:17;;;;;;;8.20;6.38;;;;;;;11.03;100.00;98404.84;5012506;28;20025;-69
2023/11/06 03:13:44;;;;;;;9.13;5.82;;;;;;;11.07;100.00;98405.16;5012183;28;20030;-70
2023/11/06 03:16:09;;;;;;;9.98;6.22;;;;;;;11.10;100.00;98401.94;5012212;28;20523;-69
2023/11/06 03:18:35;;;;;;;7.50;6.07;;;;;;;11.10;100.00;98404.63;5012455;28;20030;-70
2023/11/06 03:21:01;;;;;;;7.20;5.90;;;;;;;11.07;100.00;98405.16;5011760;28;20144;-69
2023/11/06 03:23:27;;;;;;;6.10;5.50;;;;;;;11.00;100.00;98401.88;5011917;28;20112;-70
2023/11/06 03:25:52;;;;;;;9.98;6.35;;;;;;;10.97;100.00;98413.16;5013641;28;20109;-70
2023/11/06 03:28:17;;;;;;;13.55;5.82;;;;;;;10.93;100.00;98394.03;5012008;28;20053;-69
2023/11/06 03:30:44;;;;;;;8.77;6.07;;;;;;;11.07;100.00;98409.72;5013055;28;20026;-69
2023/11/06 03:33:10;;;;;;;8.38;5.85;;;;;;;11.23;100.00;98412.22;5012738;28;20025;-70
2023/11/06 03:35:36;;;;;;;9.35;5.72;;;;;;;11.19;100.00;98408.44;5012167;28;20113;-70
2023/11/06 03:38:01;;;;;;;7.43;5.30;;;;;;;11.31;100.00;98415.50;5013195;28;20473;-70
2023/11/06 03:40:27;;;;;;;13.23;6.68;;;;;;;11.33;100.00;98426.81;5011624;28;20042;-69
2023/11/06 03:42:52;;;;;;;9.18;6.45;;;;;;;11.31;100.00;98431.66;5013301;28;20026;-70
2023/11/06 03:45:17;;;;;;;8.23;5.70;;;;;;;11.20;100.00;98436.16;4978540;28;20117;-70
2023/11/06 03:47:43;;;;;;;8.32;6.15;;;;;;;11.00;100.00;98404.56;5013324;28;20021;-70
2023/11/06 03:50:08;;;;;;;7.68;6.40;;;;;;;11.08;100.00;98425.59;5011027;28;20076;-70
2023/11/06 03:52:34;;;;;;;11.85;6.68;;;;;;;11.05;100.00;98431.50;5012633;28;20029;-70
2023/11/06 03:54:59;;;;;;;8.90;6.63;;;;;;;10.99;100.00;98435.22;5012145;28;20511;-70
2023/11/06 03:57:25;;;;;;;9.70;6.72;;;;;;;11.01;100.00;98436.59;5012322;28;20117;-70
2023/11/06 03:59:50;;;;;;;11.57;6.60;;;;;;;10.92;100.00;98431.94;5025619;28;20018;-69
2023/11/06 04:02:15;;;;;;;9.65;7.10;;;;;;;10.69;100.00;98425.88;5029745;28;20041;-69
2023/11/06 04:04:41;;;;;;;9.65;6.47;;;;;;;10.77;100.00;98428.09;5014173;28;20034;-70
2023/11/06 04:07:06;;;;;;;15.15;6.82;;;;;;;10.72;100.00;98425.38;5026751;28;20022;-69
2023/11/06 04:09:32;;;;;;;8.95;6.32;;;;;;;10.77;100.00;98414.66;5010309;28;20038;-70
2023/11/06 04:11:58;;;;;;;10.73;6.72;;;;;;;10.97;100.00;98437.38;5010796;28;20052;-69
2023/11/06 04:14:23;;;;;;;9.95;7.25;;;;;;;11.01;100.00;98441.16;4978591;28;20033;-70
2023/11/06 04:16:49;;;;;;;8.18;6.93;;;;;;;10.94;100.00;98445.97;5027181;28;20042;-70
2023/11/06 04:19:14;;;;;;;8.70;6.60;;;;;;;10.90;100.00;98447.56;5012214;28;20421;-69
2023/11/06 04:21:40;;;;;;;11.93;7.18;;;;;;;10.86;100.00;98441.91;5012223;28;20030;-69
2023/11/06 04:24:06;;;;;;;10.88;6.93;;;;;;;10.74;100.00;98455.50;5010971;28;20089;-69
2023/11/06 04:26:31;;;;;;;13.57;7.40;;;;;;;10.84;100.00;98444.03;5010851;28;20409;-70
2023/11/06 04:28:57;;;;;;;16.38;6.50;;;;;;;10.78;100.00;98429.72;5010303;28;20041;-70
2023/11/06 04:31:22;;;;;;;8.90;6.47;;;;;;;10.87;100.00;98453.47;5012656;28;20037;-69
2023/11/06 04:33:47;;;;;;;9.60;6.68;;;;;;;10.85;100.00;98440.25;5011932;28;20030;-69
2023/11/06 04:36:13;;;;;;;9.73;6.32;;;;;;;10.94;100.00;98449.47;5011213;28;20022;-70
2023/11/06 04:38:38;;;;;;;12.38;6.47;;;;;;;10.97;100.00;98450.84;5011806;28;20485;-70
2023/11/06 04:41:05;;;;;;;8.85;6.45;;;;;;;11.01;100.00;98451.94;5011535;28;20040;-69
2023/11/06 04:43:30;;;;;;;10.43;6.25;;;;;;;11.01;100.00;98449.25;5010548;28;20061;-69
2023/11/06 04:45:55;;;;;;;7.88;6.32;;;;;;;11.05;100.00;98456.53;5010996;28;20034;-70
2023/11/06 04:48:21;;;;;;;11.35;6.50;;;;;;;11.02;100.00;98457.03;5011230;28;20068;-70
2023/11/06 04:50:46;;;;;;;11.98;6.55;;;;;;;10.96;100.00;98452.72;5011254;28;20424;-69
2023/11/06 04:53:12;;;;;;;8.05;6.20;;;;;;;10.78;100.00;98459.31;5011882;28;20369;-70
2023/11/06 04:55:37;;;;;;;11.30;6.65;;;;;;;10.70;100.00;98461.69;5011682;28;20103;-70
2023/11/06 04:58:04;;;;;;;10.75;6.40;;;;;;;10.79;100.00;98469.00;5009570;28;20030;-70
2023/11/06 05:00:30;;;;;;;12.05;6.13;;;;;;;10.76;100.00;98458.78;5008457;28;20176;-70
2023/11/06 05:02:55;;;;;;;8.05;6.18;;;;;;;10.88;100.00;98465.84;5010340;28;20101;-69
2023/11/06 05:05:21;;;;;;;8.13;6.28;;;;;;;10.90;100.00;98466.41;5009627;28;20477;-69
2023/11/06 05:07:47;;;;;;;10.68;6.53;;;;;;;10.89;100.00;98468.25;5009974;28;20017;-69
2023/11/06 05:10:12;;;;;;;11.60;6.57;;;;;;;10.86;100.00;98476.88;5009852;28;20547;-70
2023/11/06 05:12:38;;;;;;;12.07;6.65;;;;;;;10.74;100.00;98479.72;5011630;28;20022;-69
2023/11/06 05:15:04;;;;;;;9.85;6.38;;;;;;;10.78;100.00;98475.44;5011775;28;20044;-69
2023/11/06 05:17:30;;;;;;;10.52;6.55;;;;;;;10.83;100.00;98482.75;5010143;28;20132;-69
2023/11/06 05:19:55;;;;;;;8.52;6.72;;;;;;;10.82;100.00;98491.88;5011516;28;20037;-69
2023/11/06 05:22:22;;;;;;;9.43;6.45;;;;;;;10.80;100.00;98486.78;5011958;28;20112;-71
2023/11/06 05:24:47;;;;;;;10.20;7.07;;;;;;;10.79;100.00;98495.09;5012539;28;20100;-70
2023/11/06 05:27:13;;;;;;;10.25;6.95;;;;;;;10.77;100.00;98491.84;5010771;28;20014;-71
2023/11/06 05:29:38;;;;;;;12.13;7.43;;;;;;;10.76;100.00;98491.03;5011219;28;20029;-71
2023/11/06 05:32:05;;;;;;;9.07;6.90;;;;;;;10.74;100.00;98501.25;5010413;28;20496;-71
2023/11/06 05:34:31;;;;;;;10.00;7.18;;;;;;;10.75;100.00;98508.22;5015323;28;20471;-71
2023/11/06 05:36:56;;;;;;;13.18;7.45;;;;;;;10.77;100.00;98510.69;5029945;28;20030;-70
2023/11/06 05:39:21;;;;;;;8.82;7.00;;;;;;;10.77;100.00;98506.09;5013945;28;20037;-71
2023/11/06 05:41:51;;;;;;;8.63;7.45;;;;;;;10.71;100.00;98495.56;5014776;28;20441;-71
2023/11/06 05:44:17;;;;;;;10.75;7.10;;;;;;;10.82;100.00;98508.03;5014793;28;20108;-70
2023/11/06 05:46:43;;;;;;;10.68;7.88;;;;;;;10.69;100.00;98495.81;5013577;28;20484;-72
2023/11/06 05:49:10;;;;;;;10.52;8.38;;;;;;;10.78;100.00;98513.09;5014243;28;20045;-72
2023/11/06 05:51:35;;;;;;;12.02;7.90;;;;;;;10.81;100.00;98509.91;5013243;28;20037;-70
2023/11/06 05:54:01;;;;;;;10.57;8.05;;;;;;;10.79;100.00;98517.44;5013994;28;20038;-70
2023/11/06 05:56:26;;;;;;;10.88;8.25;;;;;;;10.84;100.00;98526.63;5012763;28;20504;-70
2023/11/06 05:58:52;;;;;;;8.32;7.47;;;;;;;10.80;100.00;98526.31;5019577;28;20068;-71
2023/11/06 06:01:17;;;;;;;13.45;8.25;;;;;;;10.69;100.00;98529.97;5011587;28;20482;-71
2023/11/06 06:03:43;;;;;;;11.07;7.88;;;;;;;10.96;100.00;98530.75;5011893;28;20026;-69
2023/11/06 06:06:09;;;;;;;8.65;7.22;;;;;;;11.04;100.00;98537.53;5013298;28;20029;-71
2023/11/06 06:08:35;;;;;;;10.40;7.80;;;;;;;11.09;100.00;98534.84;5013547;28;20029;-70
2023/11/06 06:11:01;;;;;;;11.98;8.50;;;;;;;11.02;100.00;98543.16;5011834;28;20037;-70
2023/11/06 06:13:26;;;;;;;12.55;8.38;;;;;;;10.97;100.00;98543.13;5013525;28;20507;-70
2023/11/06 06:15:52;;;;;;;10.50;8.13;;;;;;;10.95;100.00;98552.53;5013117;28;20036;-70
2023/11/06 06:18:17;;;;;;;11.95;8.32;;;;;;;10.88;100.00;98533.09;4994890;28;20030;-71
2023/11/06 06:20:44;;;;;;;12.50;8.25;;;;;;;11.02;100.00;98553.91;5012061;28;20409;-70
2023/11/06 06:23:09;;;;;;;10.07;7.72;;;;;;;11.01;100.00;98554.19;5012527;28;20041;-70
2023/11/06 06:25:36;;;;;;;9.77;7.53;;;;;;;10.98;100.00;98557.41;5019049;28;20026;-70
2023/11/06 06:28:04;;;;;;;11.85;7.78;;;;;;;11.00;100.00;98552.56;5019936;28;20034;-70
2023/11/06 06:30:30;;;;;;;13.30;8.15;;;;;;;10.99;100.00;98559.84;5012904;28;20053;-71
2023/11/06 06:32:56;;;;;;;13.68;8.15;;;;;;;10.97;100.00;98563.84;5014292;28;20038;-71
2023/11/06 06:35:21;;;;;;;9.95;8.00;;;;;;;10.96;100.00;98578.34;5013560;28;20099;-70
2023/11/06 06:37:47;;;;;;;10.25;8.10;;;;;;;11.03;100.00;98576.28;5013666;28;20034;-69
2023/11/06 06:40:13;;;;;;;11.05;7.78;;;;;;;11.06;100.00;98575.78;5019344;28;20098;-70
2023/11/06 06:42:39;;;;;;;11.10;8.63;;;;;;;11.11;100.00;98585.75;5012207;28;20510;-70
2023/11/06 06:45:05;;;;;;;11.15;8.38;;;;;;;11.12;100.00;98580.09;5013681;28;20060;-70
2023/11/06 06:47:30;;;;;;;11.88;8.20;;;;;;;11.16;100.00;98592.00;5013356;28;20030;-71
2023/11/06 06:49:55;;;;;;;10.55;8.23;;;;;;;11.20;100.00;98595.78;5011674;28;20057;-70
2023/11/06 06:52:21;;;;;;;12.32;9.05;;;;;;;11.00;100.00;98572.22;5013125;28;20026;-71
2023/11/06 06:54:46;;;;;;;10.85;8.68;;;;;;;11.09;100.00;98604.84;5013280;28;20447;-70
2023/11/06 06:57:11;;;;;;;10.48;7.82;;;;;;;11.00;100.00;98590.25;5013141;28;20496;-71
2023/11/06 06:59:37;;;;;;;10.02;8.80;;;;;;;11.12;100.00;98606.22;5011725;28;20030;-70
2023/11/06 07:02:03;;;;;;;11.32;9.50;;;;;;;11.10;100.00;98609.19;5012997;28;20053;-70
2023/11/06 07:04:29;;;;;;;13.77;8.88;;;;;;;11.05;100.00;98606.44;5013374;28;20125;-71
2023/11/06 07:06:55;;;;;;;12.38;8.88;;;;;;;11.07;100.00;98601.59;5016697;28;20470;-71
2023/11/06 07:09:21;;;;;;;12.85;10.02;;;;;;;11.08;100.00;98611.31;5022146;28;20520;-70
2023/11/06 07:11:47;;;;;;;14.85;10.52;;;;;;;11.05;100.00;98606.44;5013386;28;20030;-70
2023/11/06 07:14:12;;;;;;;17.10;11.00;;;;;;;10.70;100.00;98569.25;5012952;28;20040;-70
2023/11/06 07:16:38;;;;;;;17.25;11.15;;;;;;;10.99;100.00;98602.06;5013083;28;20045;-70
2023/11/06 07:19:03;;;;;;;13.82;10.70;;;;;;;11.04;100.00;98612.88;5011431;28;20515;-70
2023/11/06 07:21:28;;;;;;;16.70;11.23;;;;;;;11.10;100.00;98592.22;5011212;28;20072;-71
2023/11/06 07:23:54;;;;;;;17.98;11.38;;;;;;;11.15;100.00;98606.50;5011425;28;20083;-70
2023/11/06 07:26:19;;;;;;;20.52;11.73;;;;;;;11.11;100.00;98580.38;5011107;28;20038;-70
2023/11/06 07:28:45;;;;;;;18.05;13.07;;;;;;;11.33;100.00;98602.63;5010533;28;20458;-70
2023/11/06 07:31:11;;;;;;;19.90;12.73;;;;;;;11.40;100.00;98610.50;5010477;28;20422;-70
2023/11/06 07:33:37;;;;;;;22.10;13.65;;;;;;;11.44;100.00;98612.41;5009089;28;20025;-70
2023/11/06 07:36:02;;;;;;;18.77;13.10;;;;;;;11.51;100.00;98612.97;5009201;28;20038;-71
2023/11/06 07:38:29;;;;;;;24.73;14.80;;;;;;;11.39;100.00;98609.69;5009153;28;20041;-70
2023/11/06 07:40:54;;;;;;;22.80;14.30;;;;;;;11.29;100.00;98607.72;5010598;28;20060;-71
2023/11/06 07:43:20;;;;;;;27.13;15.32;;;;;;;11.28;100.00;98600.69;4993994;28;20045;-70
2023/11/06 07:45:45;;;;;;;22.95;14.15;;;;;;;11.41;100.00;98620.19;5015428;28;20112;-70
2023/11/06 07:48:13;;;;;;;21.13;14.95;;;;;;;11.34;100.00;98614.22;5011970;28;20052;-70
2023/11/06 07:50:38;;;;;;;22.48;13.77;;;;;;;11.37;100.00;98619.88;5014454;28;20137;-70
2023/11/06 07:53:03;;;;;;;21.63;13.38;;;;;;;11.51;100.00;98620.25;5011065;28;20519;-71
2023/11/06 07:55:29;;;;;;;23.42;14.95;;;;;;;11.50;100.00;98632.91;5010396;28;20040;-70
2023/11/06 07:57:54;;;;;;;25.95;16.23;;;;;;;11.56;100.00;98620.31;5012185;28;20473;-70
2023/11/06 08:00:19;;;;;;;25.88;16.60;;;;;;;11.70;100.00;98634.94;5011031;28;20041;-70
2023/11/06 08:02:45;;;;;;;24.50;16.02;;;;;;;11.76;100.00;98628.50;5011681;28;20041;-70
2023/11/06 08:05:11;;;;;;;30.52;16.83;;;;;;;11.58;100.00;98630.81;5011784;28;20033;-70
2023/11/06 08:07:38;;;;;;;25.95;17.17;;;;;;;11.38;100.00;98637.66;5011763;28;20029;-70
2023/11/06 08:10:14;;;;;;;32.42;18.63;;;;;;;11.49;100.00;98635.88;5011797;28;20236;-70
2023/11/06 08:12:40;;;;;;;29.80;18.85;;;;;;;11.53;100.00;98639.66;5011557;28;20071;-70
2023/11/06 08:15:09;;;;;;;28.02;19.08;;;;;;;11.51;100.00;98633.72;5011299;28;20030;-70
2023/11/06 08:17:35;;;;;;;30.52;19.55;;;;;;;11.75;100.00;98637.69;5026749;28;20021;-70
2023/11/06 08:20:01;;;;;;;30.65;19.70;;;;;;;11.77;100.00;98635.50;5026523;28;20031;-71
2023/11/06 08:22:26;;;;;;;33.92;19.60;;;;;;;11.69;100.00;98633.31;5026251;28;20120;-70
2023/11/06 08:24:52;;;;;;;32.88;19.63;;;;;;;11.82;100.00;98636.59;5011767;28;20041;-70
2023/11/06 08:27:18;;;;;;;28.45;18.98;;;;;;;11.67;100.00;98624.66;5011663;28;20067;-70
2023/11/06 08:29:43;;;;;;;25.05;17.35;;;;;;;11.77;100.00;98640.09;5011694;28;20034;-70
2023/11/06 08:32:10;;;;;;;25.38;16.55;;;;;;;11.80;100.00;98644.97;5011570;28;20025;-70
2023/11/06 08:34:42;;;;;;;23.75;15.95;;;;;;;11.89;100.00;98642.63;5011926;28;20040;-70
2023/11/06 08:37:09;;;;;;;20.30;15.38;;;;;;;11.99;100.00;98656.97;5010629;28;20028;-70
2023/11/06 08:39:35;;;;;;;25.65;16.50;;;;;;;12.17;100.00;98666.50;5012053;28;20025;-71
2023/11/06 08:42:00;;;;;;;22.05;15.35;;;;;;;12.40;100.00;98664.44;5011709;28;20465;-71
2023/11/06 08:44:26;;;;;;;24.83;15.88;;;;;;;12.55;100.00;98669.09;5026728;28;20033;-71
2023/11/06 08:46:51;;;;;;;23.20;16.00;;;;;;;12.52;100.00;98680.44;5012035;28;20366;-71
2023/11/06 08:49:17;;;;;;;20.45;14.75;;;;;;;12.64;100.00;98681.78;5011169;28;20120;-72
2023/11/06 08:51:42;;;;;;;23.58;15.68;;;;;;;12.80;100.00;98689.97;5025387;28;20017;-71
2023/11/06 08:54:08;;;;;;;22.85;15.27;;;;;;;12.91;100.00;98700.53;5011562;28;20038;-71
2023/11/06 08:56:33;;;;;;;21.88;15.80;;;;;;;12.77;100.00;98674.28;5011241;28;20462;-70
2023/11/06 08:58:59;;;;;;;22.30;15.18;;;;;;;12.93;100.00;98701.06;5011052;28;20412;-71
2023/11/06 09:01:24;;;;;;;21.25;14.73;;;;;;;13.00;100.00;98700.00;5009840;28;20448;-70
2023/11/06 09:03:50;;;;;;;21.15;15.00;;;;;;;13.11;100.00;98713.25;5011056;28;20436;-71
2023/11/06 09:06:15;;;;;;;22.13;13.77;;;;;;;13.04;100.00;98691.09;5026254;28;20485;-71
2023/11/06 09:08:41;;;;;;;16.00;13.25;;;;;;;13.13;100.00;98716.50;5014465;28;20041;-71
2023/11/06 09:11:07;;;;;;;16.70;13.13;;;;;;;13.13;100.00;98721.09;5014842;28;20026;-71
2023/11/06 09:13:36;;;;;;;15.13;13.30;;;;;;;13.13;100.00;98716.50;5013728;28;20026;-71
2023/11/06 09:16:03;;;;;;;19.30;13.10;;;;;;;13.07;100.00;98698.66;5029870;28;20033;-71
2023/11/06 09:18:29;;;;;;;21.55;13.93;;;;;;;13.30;100.00;98727.09;5015129;28;20092;-71
2023/11/06 09:20:54;;;;;;;17.83;12.93;;;;;;;13.21;100.00;98717.03;5014841;28;20497;-71
2023/11/06 09:23:21;;;;;;;16.38;12.25;;;;;;;13.31;100.00;98728.72;5014800;28;20068;-71
2023/11/06 09:25:47;;;;;;;15.73;11.68;;;;;;;13.30;100.00;98724.38;5015312;28;20018;-70
2023/11/06 09:28:12;;;;;;;17.00;11.50;;;;;;;13.31;100.00;98722.50;5015087;28;20026;-71
2023/11/06 09:30:38;;;;;;;17.08;11.93;;;;;;;13.15;100.00;98725.16;5014873;28;20022;-71
2023/11/06 09:33:03;;;;;;;16.35;11.43;;;;;;;13.28;100.00;98723.06;5029813;28;20036;-71
2023/11/06 09:35:29;;;;;;;16.50;11.23;;;;;;;13.36;100.00;98727.91;5014796;28;20038;-71
2023/11/06 09:37:54;;;;;;;16.02;11.90;;;;;;;13.35;100.00;98726.31;4980730;28;20099;-71
2023/11/06 09:40:22;;;;;;;13.23;11.02;;;;;;;13.38;100.00;98740.09;5013477;28;20034;-71
2023/11/06 09:42:48;;;;;;;17.38;11.95;;;;;;;13.40;100.00;98732.50;5030025;28;20033;-71
2023/11/06 09:45:14;;;;;;;20.27;11.82;;;;;;;13.33;100.00;98733.84;5013305;28;20238;-71
2023/11/06 09:47:49;;;;;;;16.25;11.80;;;;;;;13.39;100.00;98738.19;5014394;28;20052;-71
2023/11/06 09:50:18;;;;;;;16.30;12.40;;;;;;;13.36;100.00;98730.63;5015059;28;20037;-71
2023/11/06 09:52:46;;;;;;;15.38;11.88;;;;;;;13.46;100.00;98733.31;5029353;28;20030;-71
2023/11/06 09:55:15;;;;;;;17.52;11.65;;;;;;;13.53;100.00;98730.34;5016020;28;20581;-71
2023/11/06 09:57:41;;;;;;;15.82;11.25;;;;;;;13.46;100.00;98736.03;5016393;28;20030;-71
2023/11/06 10:00:09;;;;;;;17.13;11.25;;;;;;;13.68;100.00;98735.78;5014276;28;20410;-71
2023/11/06 10:02:34;;;;;;;14.13;11.15;;;;;;;13.80;100.00;98747.13;5014364;28;20087;-71
2023/11/06 10:04:59;;;;;;;16.88;10.70;;;;;;;13.85;100.00;98743.63;5012812;28;20042;-71
2023/11/06 10:07:59;;;;;;;12.65;10.15;;;;;;;13.90;100.00;98749.00;5013214;28;20385;-71
2023/11/06 10:10:27;;;;;;;14.40;9.88;;;;;;;13.96;100.00;98749.81;4978210;28;20045;-71
2023/11/06 10:13:03;;;;;;;12.00;10.10;;;;;;;13.91;100.00;98756.06;5031855;28;20014;-71
2023/11/06 10:15:29;;;;;;;13.88;10.10;;;;;;;13.87;100.00;98760.34;5036324;28;20029;-71
2023/11/06 10:17:56;;;;;;;13.75;9.93;;;;;;;13.92;100.00;98765.78;5018327;28;20026;-71
2023/11/06 10:20:26;;;;;;;16.40;11.63;;;;;;;13.72;100.00;98744.97;4997712;28;20393;-71
2023/11/06 10:22:55;;;;;;;16.60;11.55;;;;;;;13.74;100.00;98766.31;5015491;28;20034;-71
2023/11/06 10:25:28;;;;;;;17.60;12.02;;;;;;;13.74;100.00;98763.59;5030262;28;20025;-71
2023/11/06 10:27:57;;;;;;;15.88;11.05;;;;;;;13.78;100.00;98764.72;5013935;28;20559;-71
2023/11/06 10:30:23;;;;;;;27.88;14.65;;;;;;;13.89;100.00;98763.63;5029417;28;20030;-71
2023/11/06 10:32:49;;;;;;;18.77;11.90;;;;;;;13.84;100.00;98763.59;5012973;28;20535;-71
2023/11/06 10:35:17;;;;;;;15.50;10.85;;;;;;;13.69;100.00;98771.72;4996513;28;20069;-71
2023/11/06 10:37:44;;;;;;;18.90;10.27;;;;;;;13.79;100.00;98769.03;5031592;28;20069;-71
2023/11/06 10:40:14;;;;;;;16.00;11.65;;;;;;;13.90;100.00;98765.22;5014456;28;20496;-70
2023/11/06 10:42:44;;;;;;;12.77;9.70;;;;;;;14.15;100.00;98763.59;5016014;28;20041;-71
2023/11/06 10:45:14;;;;;;;14.93;10.00;;;;;;;14.23;100.00;98765.75;5013385;28;20390;-71
2023/11/06 10:47:46;;;;;;;12.35;9.80;;;;;;;14.28;100.00;98754.94;5013699;28;20018;-71
2023/11/06 10:50:23;;;;;;;15.75;11.07;;;;;;;14.52;100.00;98768.69;5013238;28;20076;-71
2023/11/06 10:52:54;;;;;;;14.40;9.48;;;;;;;14.47;100.00;98761.38;5028662;28;20029;-71
2023/11/06 10:55:22;;;;;;;10.32;8.18;;;;;;;14.65;100.00;98773.53;5013303;28;20622;-71
2023/11/06 10:57:51;;;;;;;13.23;8.23;;;;;;;14.54;100.00;98758.44;5013477;28;20037;-71
2023/11/06 11:00:20;;;;;;;11.32;7.90;;;;;;;14.70;100.00;98783.53;5028511;28;20029;-71
2023/11/06 11:02:54;;;;;;;11.25;7.43;;;;;;;14.56;100.00;98770.56;5013311;28;20052;-70
2023/11/06 11:05:24;;;;;;;11.73;8.03;;;;;;;14.64;100.00;98781.94;5013392;28;20033;-71
2023/11/06 11:07:51;;;;;;;9.55;7.22;;;;;;;14.57;100.00;98780.34;5013482;28;20029;-71
2023/11/06 11:10:19;;;;;;;9.93;7.35;;;;;;;14.57;100.00;98780.34;5012164;28;20154;-71
2023/11/06 11:12:48;;;;;;;10.57;7.35;;;;;;;14.63;100.00;98788.41;5028491;28;20030;-71